sensor_id;sensor_type;location;lat;lon;timestamp;P1;durP1;ratioP1;P2;durP2;ratioP2
6973;SDS011;3527;52.376;8.990;2022-09-09T00:00:15;4.77;;;3.60;;
6973;SDS011;3527;52.376;8.990;2022-09-09T00:03:10;4.53;;;3.67;;
6973;SDS011;3527;52.376;8.990;2022-09-09T00:06:09;6.23;;;3.60;;
6973;SDS011;3527;52.376;8.990;2022-09-09T00:09:17;5.77;;;3.50;;
6973;SDS011;3527;52.376;8.990;2022-09-09T00:14:58;9.23;;;3.73;;
6973;SDS011;3527;52.376;8.990;2022-09-09T00:17:53;4.07;;;3.40;;
6973;SDS011;3527;52.376;8.990;2022-09-09T00:20:53;4.70;;;3.13;;
6973;SDS011;3527;52.376;8.990;2022-09-09T00:23:44;5.23;;;3.47;;
6973;SDS011;3527;52.376;8.990;2022-09-09T00:26:42;7.53;;;3.60;;
6973;SDS011;3527;52.376;8.990;2022-09-09T00:29:42;4.00;;;3.17;;
6973;SDS011;3527;52.376;8.990;2022-09-09T00:32:32;5.23;;;3.30;;
6973;SDS011;3527;52.376;8.990;2022-09-09T00:35:24;3.93;;;3.13;;
6973;SDS011;3527;52.376;8.990;2022-09-09T00:38:18;6.13;;;3.00;;
6973;SDS011;3527;52.376;8.990;2022-09-09T00:41:12;4.23;;;3.00;;
6973;SDS011;3527;52.376;8.990;2022-09-09T00:50:47;5.83;;;2.73;;
6973;SDS011;3527;52.376;8.990;2022-09-09T01:06:11;3.83;;;2.27;;
6973;SDS011;3527;52.376;8.990;2022-09-09T01:09:22;5.27;;;2.47;;
6973;SDS011;3527;52.376;8.990;2022-09-09T01:15:26;4.63;;;2.60;;
6973;SDS011;3527;52.376;8.990;2022-09-09T01:18:17;8.63;;;2.37;;
6973;SDS011;3527;52.376;8.990;2022-09-09T01:27:17;3.47;;;2.37;;
6973;SDS011;3527;52.376;8.990;2022-09-09T01:30:08;5.13;;;2.70;;
6973;SDS011;3527;52.376;8.990;2022-09-09T01:32:58;5.00;;;2.53;;
6973;SDS011;3527;52.376;8.990;2022-09-09T01:38:47;3.80;;;2.27;;
6973;SDS011;3527;52.376;8.990;2022-09-09T01:41:34;5.73;;;2.73;;
6973;SDS011;3527;52.376;8.990;2022-09-09T01:44:21;4.53;;;2.40;;
6973;SDS011;3527;52.376;8.990;2022-09-09T01:47:09;9.03;;;2.60;;
6973;SDS011;3527;52.376;8.990;2022-09-09T01:49:57;3.40;;;2.27;;
6973;SDS011;3527;52.376;8.990;2022-09-09T01:52:46;3.27;;;2.23;;
6973;SDS011;3527;52.376;8.990;2022-09-09T01:55:37;5.37;;;2.53;;
6973;SDS011;3527;52.376;8.990;2022-09-09T02:07:40;4.77;;;2.60;;
6973;SDS011;3527;52.376;8.990;2022-09-09T02:10:45;5.40;;;2.80;;
6973;SDS011;3527;52.376;8.990;2022-09-09T02:13:34;4.83;;;2.50;;
6973;SDS011;3527;52.376;8.990;2022-09-09T02:16:25;8.97;;;2.73;;
6973;SDS011;3527;52.376;8.990;2022-09-09T02:19:29;4.37;;;2.90;;
6973;SDS011;3527;52.376;8.990;2022-09-09T02:22:19;9.90;;;3.07;;
6973;SDS011;3527;52.376;8.990;2022-09-09T02:25:12;10.47;;;3.50;;
6973;SDS011;3527;52.376;8.990;2022-09-09T02:28:04;7.33;;;3.20;;
6973;SDS011;3527;52.376;8.990;2022-09-09T02:30:56;9.13;;;3.03;;
6973;SDS011;3527;52.376;8.990;2022-09-09T02:33:47;4.33;;;2.60;;
6973;SDS011;3527;52.376;8.990;2022-09-09T02:36:39;4.10;;;2.83;;
6973;SDS011;3527;52.376;8.990;2022-09-09T02:39:30;5.47;;;3.17;;
6973;SDS011;3527;52.376;8.990;2022-09-09T02:42:17;3.83;;;2.80;;
6973;SDS011;3527;52.376;8.990;2022-09-09T02:45:04;5.63;;;2.73;;
6973;SDS011;3527;52.376;8.990;2022-09-09T02:47:55;5.93;;;2.60;;
6973;SDS011;3527;52.376;8.990;2022-09-09T03:00:12;7.77;;;2.50;;
6973;SDS011;3527;52.376;8.990;2022-09-09T03:02:59;3.93;;;2.43;;
6973;SDS011;3527;52.376;8.990;2022-09-09T03:05:46;3.93;;;2.33;;
6973;SDS011;3527;52.376;8.990;2022-09-09T03:08:33;7.03;;;3.03;;
6973;SDS011;3527;52.376;8.990;2022-09-09T03:11:20;4.97;;;2.33;;
6973;SDS011;3527;52.376;8.990;2022-09-09T03:14:07;5.30;;;2.73;;
6973;SDS011;3527;52.376;8.990;2022-09-09T03:16:55;3.93;;;2.20;;
6973;SDS011;3527;52.376;8.990;2022-09-09T03:19:43;5.87;;;2.50;;
6973;SDS011;3527;52.376;8.990;2022-09-09T03:22:30;4.03;;;2.20;;
6973;SDS011;3527;52.376;8.990;2022-09-09T03:25:17;4.60;;;2.40;;
6973;SDS011;3527;52.376;8.990;2022-09-09T03:28:04;5.00;;;2.20;;
6973;SDS011;3527;52.376;8.990;2022-09-09T03:30:51;5.67;;;2.67;;
6973;SDS011;3527;52.376;8.990;2022-09-09T03:33:38;2.53;;;2.10;;
6973;SDS011;3527;52.376;8.990;2022-09-09T03:36:27;4.43;;;2.40;;
6973;SDS011;3527;52.376;8.990;2022-09-09T03:39:14;5.47;;;2.93;;
6973;SDS011;3527;52.376;8.990;2022-09-09T03:42:02;6.30;;;2.60;;
6973;SDS011;3527;52.376;8.990;2022-09-09T03:44:52;4.70;;;2.60;;
6973;SDS011;3527;52.376;8.990;2022-09-09T03:47:39;5.67;;;2.50;;
6973;SDS011;3527;52.376;8.990;2022-09-09T03:50:26;5.30;;;2.47;;
6973;SDS011;3527;52.376;8.990;2022-09-09T03:53:13;4.77;;;2.60;;
6973;SDS011;3527;52.376;8.990;2022-09-09T03:56:02;4.10;;;2.63;;
6973;SDS011;3527;52.376;8.990;2022-09-09T03:58:50;4.97;;;3.00;;
6973;SDS011;3527;52.376;8.990;2022-09-09T04:01:38;4.73;;;3.07;;
6973;SDS011;3527;52.376;8.990;2022-09-09T04:04:25;4.97;;;2.83;;
6973;SDS011;3527;52.376;8.990;2022-09-09T04:07:13;5.57;;;2.73;;
6973;SDS011;3527;52.376;8.990;2022-09-09T04:10:00;5.33;;;2.87;;
6973;SDS011;3527;52.376;8.990;2022-09-09T04:12:48;5.43;;;2.50;;
6973;SDS011;3527;52.376;8.990;2022-09-09T04:15:35;7.80;;;3.07;;
6973;SDS011;3527;52.376;8.990;2022-09-09T04:18:23;5.00;;;2.70;;
6973;SDS011;3527;52.376;8.990;2022-09-09T04:21:10;5.10;;;3.00;;
6973;SDS011;3527;52.376;8.990;2022-09-09T04:23:58;7.47;;;2.63;;
6973;SDS011;3527;52.376;8.990;2022-09-09T04:26:46;6.10;;;3.30;;
6973;SDS011;3527;52.376;8.990;2022-09-09T04:29:33;5.00;;;2.77;;
6973;SDS011;3527;52.376;8.990;2022-09-09T04:32:20;5.97;;;2.80;;
6973;SDS011;3527;52.376;8.990;2022-09-09T04:35:08;4.10;;;2.53;;
6973;SDS011;3527;52.376;8.990;2022-09-09T04:37:55;4.60;;;2.70;;
6973;SDS011;3527;52.376;8.990;2022-09-09T04:40:51;5.47;;;2.97;;
6973;SDS011;3527;52.376;8.990;2022-09-09T04:43:39;5.37;;;2.93;;
6973;SDS011;3527;52.376;8.990;2022-09-09T04:46:26;5.70;;;3.07;;
6973;SDS011;3527;52.376;8.990;2022-09-09T04:49:13;7.27;;;3.17;;
6973;SDS011;3527;52.376;8.990;2022-09-09T04:52:01;4.20;;;2.77;;
6973;SDS011;3527;52.376;8.990;2022-09-09T04:54:49;5.93;;;3.13;;
6973;SDS011;3527;52.376;8.990;2022-09-09T04:57:35;7.53;;;2.80;;
6973;SDS011;3527;52.376;8.990;2022-09-09T05:00:23;5.07;;;2.70;;
6973;SDS011;3527;52.376;8.990;2022-09-09T05:03:11;5.83;;;3.37;;
6973;SDS011;3527;52.376;8.990;2022-09-09T05:06:09;8.27;;;3.50;;
6973;SDS011;3527;52.376;8.990;2022-09-09T05:08:57;4.43;;;2.53;;
6973;SDS011;3527;52.376;8.990;2022-09-09T05:11:45;6.00;;;3.23;;
6973;SDS011;3527;52.376;8.990;2022-09-09T05:14:32;3.73;;;2.97;;
6973;SDS011;3527;52.376;8.990;2022-09-09T05:17:19;6.20;;;3.40;;
6973;SDS011;3527;52.376;8.990;2022-09-09T05:20:07;6.83;;;3.60;;
6973;SDS011;3527;52.376;8.990;2022-09-09T05:23:01;5.07;;;3.03;;
6973;SDS011;3527;52.376;8.990;2022-09-09T05:25:57;5.53;;;2.73;;
6973;SDS011;3527;52.376;8.990;2022-09-09T05:28:45;5.77;;;2.60;;
6973;SDS011;3527;52.376;8.990;2022-09-09T05:31:32;5.77;;;2.90;;
6973;SDS011;3527;52.376;8.990;2022-09-09T05:34:20;5.67;;;2.70;;
6973;SDS011;3527;52.376;8.990;2022-09-09T05:37:07;12.13;;;3.10;;
6973;SDS011;3527;52.376;8.990;2022-09-09T05:39:54;7.40;;;2.43;;
6973;SDS011;3527;52.376;8.990;2022-09-09T05:42:41;5.43;;;2.53;;
6973;SDS011;3527;52.376;8.990;2022-09-09T05:45:28;4.10;;;2.60;;
6973;SDS011;3527;52.376;8.990;2022-09-09T05:48:15;4.37;;;2.70;;
6973;SDS011;3527;52.376;8.990;2022-09-09T05:51:02;3.63;;;2.27;;
6973;SDS011;3527;52.376;8.990;2022-09-09T05:53:51;5.90;;;2.30;;
6973;SDS011;3527;52.376;8.990;2022-09-09T05:56:38;4.07;;;2.40;;
6973;SDS011;3527;52.376;8.990;2022-09-09T05:59:25;5.00;;;2.40;;
6973;SDS011;3527;52.376;8.990;2022-09-09T06:02:12;5.30;;;2.47;;
6973;SDS011;3527;52.376;8.990;2022-09-09T06:05:00;8.63;;;2.20;;
6973;SDS011;3527;52.376;8.990;2022-09-09T06:07:47;4.53;;;2.40;;
6973;SDS011;3527;52.376;8.990;2022-09-09T06:10:34;5.00;;;2.60;;
6973;SDS011;3527;52.376;8.990;2022-09-09T06:13:22;5.57;;;2.70;;
6973;SDS011;3527;52.376;8.990;2022-09-09T06:16:11;2.57;;;2.20;;
6973;SDS011;3527;52.376;8.990;2022-09-09T06:19:00;6.67;;;2.97;;
6973;SDS011;3527;52.376;8.990;2022-09-09T06:21:49;4.73;;;2.50;;
6973;SDS011;3527;52.376;8.990;2022-09-09T06:24:37;6.23;;;2.60;;
6973;SDS011;3527;52.376;8.990;2022-09-09T06:27:24;5.73;;;2.97;;
6973;SDS011;3527;52.376;8.990;2022-09-09T06:30:11;4.17;;;2.50;;
6973;SDS011;3527;52.376;8.990;2022-09-09T06:32:58;10.40;;;3.00;;
6973;SDS011;3527;52.376;8.990;2022-09-09T06:35:51;4.17;;;2.60;;
6973;SDS011;3527;52.376;8.990;2022-09-09T06:38:39;7.77;;;2.87;;
6973;SDS011;3527;52.376;8.990;2022-09-09T06:41:27;5.20;;;2.90;;
6973;SDS011;3527;52.376;8.990;2022-09-09T06:44:17;4.80;;;2.87;;
6973;SDS011;3527;52.376;8.990;2022-09-09T06:47:04;4.63;;;2.57;;
6973;SDS011;3527;52.376;8.990;2022-09-09T06:49:52;6.90;;;3.00;;
6973;SDS011;3527;52.376;8.990;2022-09-09T06:52:39;3.90;;;2.93;;
6973;SDS011;3527;52.376;8.990;2022-09-09T06:55:26;7.03;;;3.03;;
6973;SDS011;3527;52.376;8.990;2022-09-09T06:58:13;6.63;;;2.93;;
6973;SDS011;3527;52.376;8.990;2022-09-09T07:01:06;6.17;;;3.00;;
6973;SDS011;3527;52.376;8.990;2022-09-09T07:03:54;7.30;;;2.80;;
6973;SDS011;3527;52.376;8.990;2022-09-09T07:06:43;4.50;;;2.67;;
6973;SDS011;3527;52.376;8.990;2022-09-09T07:09:32;3.43;;;2.70;;
6973;SDS011;3527;52.376;8.990;2022-09-09T07:12:19;3.37;;;2.73;;
6973;SDS011;3527;52.376;8.990;2022-09-09T07:15:06;5.10;;;2.63;;
6973;SDS011;3527;52.376;8.990;2022-09-09T07:17:53;4.20;;;2.30;;
6973;SDS011;3527;52.376;8.990;2022-09-09T07:20:40;6.60;;;2.33;;
6973;SDS011;3527;52.376;8.990;2022-09-09T07:23:28;4.33;;;2.50;;
6973;SDS011;3527;52.376;8.990;2022-09-09T07:26:22;5.37;;;2.10;;
6973;SDS011;3527;52.376;8.990;2022-09-09T07:29:11;4.40;;;2.00;;
6973;SDS011;3527;52.376;8.990;2022-09-09T07:32:06;5.37;;;1.80;;
6973;SDS011;3527;52.376;8.990;2022-09-09T07:34:53;5.17;;;2.17;;
6973;SDS011;3527;52.376;8.990;2022-09-09T07:37:40;3.87;;;1.97;;
6973;SDS011;3527;52.376;8.990;2022-09-09T07:40:27;5.50;;;2.17;;
6973;SDS011;3527;52.376;8.990;2022-09-09T07:43:15;3.87;;;2.03;;
6973;SDS011;3527;52.376;8.990;2022-09-09T07:46:05;4.77;;;2.17;;
6973;SDS011;3527;52.376;8.990;2022-09-09T07:48:54;3.30;;;2.07;;
6973;SDS011;3527;52.376;8.990;2022-09-09T07:51:44;4.50;;;2.13;;
6973;SDS011;3527;52.376;8.990;2022-09-09T07:54:32;4.27;;;2.10;;
6973;SDS011;3527;52.376;8.990;2022-09-09T07:57:19;5.40;;;2.10;;
6973;SDS011;3527;52.376;8.990;2022-09-09T08:00:08;3.43;;;1.90;;
6973;SDS011;3527;52.376;8.990;2022-09-09T08:02:57;4.27;;;2.00;;
6973;SDS011;3527;52.376;8.990;2022-09-09T08:05:44;4.23;;;1.90;;
6973;SDS011;3527;52.376;8.990;2022-09-09T08:08:31;4.63;;;2.00;;
6973;SDS011;3527;52.376;8.990;2022-09-09T08:11:18;5.77;;;2.20;;
6973;SDS011;3527;52.376;8.990;2022-09-09T08:14:06;3.63;;;2.07;;
6973;SDS011;3527;52.376;8.990;2022-09-09T08:16:54;4.87;;;2.00;;
6973;SDS011;3527;52.376;8.990;2022-09-09T08:19:42;3.83;;;2.00;;
6973;SDS011;3527;52.376;8.990;2022-09-09T08:22:31;4.57;;;1.80;;
6973;SDS011;3527;52.376;8.990;2022-09-09T08:25:18;4.77;;;2.10;;
6973;SDS011;3527;52.376;8.990;2022-09-09T08:28:05;5.33;;;2.17;;
6973;SDS011;3527;52.376;8.990;2022-09-09T08:30:52;7.70;;;2.10;;
6973;SDS011;3527;52.376;8.990;2022-09-09T08:33:40;3.27;;;1.80;;
6973;SDS011;3527;52.376;8.990;2022-09-09T08:36:28;4.97;;;2.13;;
6973;SDS011;3527;52.376;8.990;2022-09-09T08:39:17;4.17;;;1.73;;
6973;SDS011;3527;52.376;8.990;2022-09-09T08:45:14;4.40;;;1.60;;
6973;SDS011;3527;52.376;8.990;2022-09-09T08:51:19;3.97;;;1.43;;
6973;SDS011;3527;52.376;8.990;2022-09-09T08:54:07;5.43;;;2.00;;
6973;SDS011;3527;52.376;8.990;2022-09-09T08:56:56;5.10;;;1.80;;
6973;SDS011;3527;52.376;8.990;2022-09-09T08:59:43;4.00;;;1.73;;
6973;SDS011;3527;52.376;8.990;2022-09-09T09:02:33;3.17;;;1.50;;
6973;SDS011;3527;52.376;8.990;2022-09-09T09:05:34;5.83;;;1.60;;
6973;SDS011;3527;52.376;8.990;2022-09-09T09:08:38;6.37;;;1.80;;
6973;SDS011;3527;52.376;8.990;2022-09-09T09:11:47;4.27;;;1.63;;
6973;SDS011;3527;52.376;8.990;2022-09-09T09:14:43;4.47;;;1.50;;
6973;SDS011;3527;52.376;8.990;2022-09-09T09:17:33;5.30;;;1.90;;
6973;SDS011;3527;52.376;8.990;2022-09-09T09:20:28;6.43;;;1.93;;
6973;SDS011;3527;52.376;8.990;2022-09-09T09:23:43;7.00;;;2.07;;
6973;SDS011;3527;52.376;8.990;2022-09-09T09:26:38;6.27;;;2.00;;
6973;SDS011;3527;52.376;8.990;2022-09-09T09:29:33;8.00;;;2.20;;
6973;SDS011;3527;52.376;8.990;2022-09-09T09:32:43;5.67;;;1.90;;
6973;SDS011;3527;52.376;8.990;2022-09-09T09:35:37;8.03;;;2.00;;
6973;SDS011;3527;52.376;8.990;2022-09-09T09:38:29;4.23;;;1.70;;
6973;SDS011;3527;52.376;8.990;2022-09-09T09:41:38;3.67;;;1.67;;
6973;SDS011;3527;52.376;8.990;2022-09-09T09:44:31;5.53;;;1.93;;
6973;SDS011;3527;52.376;8.990;2022-09-09T09:47:19;3.73;;;1.70;;
6973;SDS011;3527;52.376;8.990;2022-09-09T09:50:17;4.23;;;1.50;;
6973;SDS011;3527;52.376;8.990;2022-09-09T09:53:17;5.43;;;2.03;;
6973;SDS011;3527;52.376;8.990;2022-09-09T09:56:13;6.57;;;2.00;;
6973;SDS011;3527;52.376;8.990;2022-09-09T09:59:01;6.47;;;2.10;;
6973;SDS011;3527;52.376;8.990;2022-09-09T10:02:22;4.90;;;1.87;;
6973;SDS011;3527;52.376;8.990;2022-09-09T10:05:15;7.37;;;2.00;;
6973;SDS011;3527;52.376;8.990;2022-09-09T10:08:12;3.27;;;1.93;;
6973;SDS011;3527;52.376;8.990;2022-09-09T10:14:41;8.00;;;2.27;;
6973;SDS011;3527;52.376;8.990;2022-09-09T10:21:02;6.23;;;1.87;;
6973;SDS011;3527;52.376;8.990;2022-09-09T10:33:09;2.70;;;1.80;;
6973;SDS011;3527;52.376;8.990;2022-09-09T10:36:13;5.43;;;2.10;;
6973;SDS011;3527;52.376;8.990;2022-09-09T10:42:30;4.33;;;2.23;;
6973;SDS011;3527;52.376;8.990;2022-09-09T10:45:18;3.30;;;1.40;;
6973;SDS011;3527;52.376;8.990;2022-09-09T10:57:13;4.30;;;0.90;;
6973;SDS011;3527;52.376;8.990;2022-09-09T11:00:15;3.87;;;1.23;;
6973;SDS011;3527;52.376;8.990;2022-09-09T11:03:06;3.07;;;1.30;;
6973;SDS011;3527;52.376;8.990;2022-09-09T11:06:09;3.93;;;1.20;;
6973;SDS011;3527;52.376;8.990;2022-09-09T11:09:03;2.23;;;1.07;;
6973;SDS011;3527;52.376;8.990;2022-09-09T11:11:55;2.97;;;1.10;;
6973;SDS011;3527;52.376;8.990;2022-09-09T11:14:44;3.43;;;1.17;;
6973;SDS011;3527;52.376;8.990;2022-09-09T11:20:37;3.60;;;1.30;;
6973;SDS011;3527;52.376;8.990;2022-09-09T11:23:27;3.20;;;1.13;;
6973;SDS011;3527;52.376;8.990;2022-09-09T11:26:47;4.20;;;1.63;;
6973;SDS011;3527;52.376;8.990;2022-09-09T11:43:12;5.17;;;1.40;;
6973;SDS011;3527;52.376;8.990;2022-09-09T11:46:02;4.07;;;1.40;;
6973;SDS011;3527;52.376;8.990;2022-09-09T11:49:03;4.33;;;1.50;;
6973;SDS011;3527;52.376;8.990;2022-09-09T11:51:52;3.33;;;1.20;;
6973;SDS011;3527;52.376;8.990;2022-09-09T11:54:46;5.30;;;1.60;;
6973;SDS011;3527;52.376;8.990;2022-09-09T11:57:35;3.73;;;1.43;;
6973;SDS011;3527;52.376;8.990;2022-09-09T12:00:39;3.37;;;1.33;;
6973;SDS011;3527;52.376;8.990;2022-09-09T12:03:47;4.87;;;1.47;;
6973;SDS011;3527;52.376;8.990;2022-09-09T12:06:42;4.40;;;1.30;;
6973;SDS011;3527;52.376;8.990;2022-09-09T12:09:46;4.80;;;1.48;;
6973;SDS011;3527;52.376;8.990;2022-09-09T12:12:48;2.95;;;1.17;;
6973;SDS011;3527;52.376;8.990;2022-09-09T12:15:36;5.17;;;1.50;;
6973;SDS011;3527;52.376;8.990;2022-09-09T12:18:38;2.73;;;1.20;;
6973;SDS011;3527;52.376;8.990;2022-09-09T12:21:30;4.47;;;1.27;;
6973;SDS011;3527;52.376;8.990;2022-09-09T12:24:42;3.87;;;1.20;;
6973;SDS011;3527;52.376;8.990;2022-09-09T12:36:58;4.25;;;1.40;;
6973;SDS011;3527;52.376;8.990;2022-09-09T12:40:14;3.67;;;1.30;;
6973;SDS011;3527;52.376;8.990;2022-09-09T12:43:16;4.95;;;1.38;;
6973;SDS011;3527;52.376;8.990;2022-09-09T12:46:21;3.35;;;1.40;;
6973;SDS011;3527;52.376;8.990;2022-09-09T12:52:29;3.10;;;1.50;;
6973;SDS011;3527;52.376;8.990;2022-09-09T12:55:32;4.00;;;1.20;;
6973;SDS011;3527;52.376;8.990;2022-09-09T12:58:23;3.63;;;1.30;;
6973;SDS011;3527;52.376;8.990;2022-09-09T13:01:17;8.30;;;1.77;;
6973;SDS011;3527;52.376;8.990;2022-09-09T13:04:20;4.20;;;1.60;;
6973;SDS011;3527;52.376;8.990;2022-09-09T13:07:27;4.78;;;1.35;;
6973;SDS011;3527;52.376;8.990;2022-09-09T13:15:36;3.27;;;1.27;;
6973;SDS011;3527;52.376;8.990;2022-09-09T13:19:44;5.00;;;1.40;;
6973;SDS011;3527;52.376;8.990;2022-09-09T13:22:34;9.43;;;1.53;;
6973;SDS011;3527;52.376;8.990;2022-09-09T13:25:25;3.87;;;1.27;;
6973;SDS011;3527;52.376;8.990;2022-09-09T13:28:19;3.17;;;1.17;;
6973;SDS011;3527;52.376;8.990;2022-09-09T13:31:19;4.10;;;1.40;;
6973;SDS011;3527;52.376;8.990;2022-09-09T13:34:13;3.17;;;1.50;;
6973;SDS011;3527;52.376;8.990;2022-09-09T13:37:37;4.15;;;1.48;;
6973;SDS011;3527;52.376;8.990;2022-09-09T13:40:24;3.20;;;1.13;;
6973;SDS011;3527;52.376;8.990;2022-09-09T13:43:16;3.20;;;1.13;;
6973;SDS011;3527;52.376;8.990;2022-09-09T13:49:39;4.80;;;1.30;;
6973;SDS011;3527;52.376;8.990;2022-09-09T13:52:30;2.70;;;1.10;;
6973;SDS011;3527;52.376;8.990;2022-09-09T13:55:20;3.57;;;1.10;;
6973;SDS011;3527;52.376;8.990;2022-09-09T13:58:14;4.30;;;1.10;;
6973;SDS011;3527;52.376;8.990;2022-09-09T14:01:06;2.60;;;1.23;;
6973;SDS011;3527;52.376;8.990;2022-09-09T14:03:54;3.10;;;1.10;;
6973;SDS011;3527;52.376;8.990;2022-09-09T14:06:41;4.63;;;1.20;;
6973;SDS011;3527;52.376;8.990;2022-09-09T14:09:33;3.70;;;1.03;;
6973;SDS011;3527;52.376;8.990;2022-09-09T14:12:20;4.50;;;1.40;;
6973;SDS011;3527;52.376;8.990;2022-09-09T14:15:09;2.50;;;1.10;;
6973;SDS011;3527;52.376;8.990;2022-09-09T14:17:57;3.77;;;1.50;;
6973;SDS011;3527;52.376;8.990;2022-09-09T14:20:45;4.73;;;1.40;;
6973;SDS011;3527;52.376;8.990;2022-09-09T14:23:34;3.80;;;1.30;;
6973;SDS011;3527;52.376;8.990;2022-09-09T14:26:23;1.83;;;1.23;;
6973;SDS011;3527;52.376;8.990;2022-09-09T14:29:10;4.63;;;1.10;;
6973;SDS011;3527;52.376;8.990;2022-09-09T14:31:57;2.77;;;1.03;;
6973;SDS011;3527;52.376;8.990;2022-09-09T14:34:58;5.30;;;1.37;;
6973;SDS011;3527;52.376;8.990;2022-09-09T14:37:45;6.93;;;1.40;;
6973;SDS011;3527;52.376;8.990;2022-09-09T14:40:35;2.90;;;0.90;;
6973;SDS011;3527;52.376;8.990;2022-09-09T14:43:24;5.03;;;1.30;;
6973;SDS011;3527;52.376;8.990;2022-09-09T14:46:17;2.90;;;1.30;;
6973;SDS011;3527;52.376;8.990;2022-09-09T14:49:05;3.33;;;1.23;;
6973;SDS011;3527;52.376;8.990;2022-09-09T14:51:52;2.50;;;1.20;;
6973;SDS011;3527;52.376;8.990;2022-09-09T14:54:39;2.40;;;1.07;;
6973;SDS011;3527;52.376;8.990;2022-09-09T14:57:26;3.17;;;1.03;;
6973;SDS011;3527;52.376;8.990;2022-09-09T15:00:13;2.07;;;1.10;;
6973;SDS011;3527;52.376;8.990;2022-09-09T15:03:01;4.17;;;1.27;;
6973;SDS011;3527;52.376;8.990;2022-09-09T15:05:50;4.60;;;1.60;;
6973;SDS011;3527;52.376;8.990;2022-09-09T15:08:38;2.57;;;1.07;;
6973;SDS011;3527;52.376;8.990;2022-09-09T15:11:29;3.13;;;1.20;;
6973;SDS011;3527;52.376;8.990;2022-09-09T15:14:18;3.60;;;1.30;;
6973;SDS011;3527;52.376;8.990;2022-09-09T15:17:11;4.67;;;1.60;;
6973;SDS011;3527;52.376;8.990;2022-09-09T15:19:58;4.75;;;1.40;;
6973;SDS011;3527;52.376;8.990;2022-09-09T15:22:45;2.90;;;1.25;;
6973;SDS011;3527;52.376;8.990;2022-09-09T15:25:32;3.50;;;1.43;;
6973;SDS011;3527;52.376;8.990;2022-09-09T15:28:19;4.60;;;1.30;;
6973;SDS011;3527;52.376;8.990;2022-09-09T15:31:11;3.30;;;1.17;;
6973;SDS011;3527;52.376;8.990;2022-09-09T15:34:02;3.87;;;1.20;;
6973;SDS011;3527;52.376;8.990;2022-09-09T15:36:50;2.17;;;0.90;;
6973;SDS011;3527;52.376;8.990;2022-09-09T15:39:38;3.27;;;1.00;;
6973;SDS011;3527;52.376;8.990;2022-09-09T15:42:27;2.57;;;1.10;;
6973;SDS011;3527;52.376;8.990;2022-09-09T15:45:14;3.63;;;1.10;;
6973;SDS011;3527;52.376;8.990;2022-09-09T15:48:02;1.87;;;1.00;;
6973;SDS011;3527;52.376;8.990;2022-09-09T15:50:54;2.53;;;0.90;;
6973;SDS011;3527;52.376;8.990;2022-09-09T15:54:04;3.30;;;1.23;;
6973;SDS011;3527;52.376;8.990;2022-09-09T15:56:56;3.17;;;1.20;;
6973;SDS011;3527;52.376;8.990;2022-09-09T15:59:45;3.10;;;1.00;;
6973;SDS011;3527;52.376;8.990;2022-09-09T16:02:32;5.43;;;1.20;;
6973;SDS011;3527;52.376;8.990;2022-09-09T16:05:19;2.23;;;1.20;;
6973;SDS011;3527;52.376;8.990;2022-09-09T16:08:07;2.40;;;1.20;;
6973;SDS011;3527;52.376;8.990;2022-09-09T16:10:54;3.47;;;1.20;;
6973;SDS011;3527;52.376;8.990;2022-09-09T16:13:42;2.77;;;1.20;;
6973;SDS011;3527;52.376;8.990;2022-09-09T16:16:36;2.63;;;1.10;;
6973;SDS011;3527;52.376;8.990;2022-09-09T16:19:23;2.63;;;1.30;;
6973;SDS011;3527;52.376;8.990;2022-09-09T16:22:10;1.80;;;0.97;;
6973;SDS011;3527;52.376;8.990;2022-09-09T16:24:57;3.20;;;1.40;;
6973;SDS011;3527;52.376;8.990;2022-09-09T16:27:45;2.07;;;1.00;;
6973;SDS011;3527;52.376;8.990;2022-09-09T16:30:32;2.67;;;1.33;;
6973;SDS011;3527;52.376;8.990;2022-09-09T16:33:19;1.40;;;0.90;;
6973;SDS011;3527;52.376;8.990;2022-09-09T16:36:07;3.77;;;1.10;;
6973;SDS011;3527;52.376;8.990;2022-09-09T16:38:56;2.90;;;1.10;;
6973;SDS011;3527;52.376;8.990;2022-09-09T16:41:45;3.43;;;1.20;;
6973;SDS011;3527;52.376;8.990;2022-09-09T16:44:34;2.80;;;0.93;;
6973;SDS011;3527;52.376;8.990;2022-09-09T16:47:21;2.87;;;1.20;;
6973;SDS011;3527;52.376;8.990;2022-09-09T16:50:08;2.70;;;0.97;;
6973;SDS011;3527;52.376;8.990;2022-09-09T16:52:55;2.87;;;1.20;;
6973;SDS011;3527;52.376;8.990;2022-09-09T16:55:43;2.10;;;1.23;;
6973;SDS011;3527;52.376;8.990;2022-09-09T16:58:30;6.13;;;1.20;;
6973;SDS011;3527;52.376;8.990;2022-09-09T17:01:17;1.53;;;1.00;;
6973;SDS011;3527;52.376;8.990;2022-09-09T17:04:05;2.47;;;1.20;;
6973;SDS011;3527;52.376;8.990;2022-09-09T17:07:00;1.83;;;1.00;;
6973;SDS011;3527;52.376;8.990;2022-09-09T17:09:48;3.80;;;1.20;;
6973;SDS011;3527;52.376;8.990;2022-09-09T17:12:35;3.00;;;1.13;;
6973;SDS011;3527;52.376;8.990;2022-09-09T17:15:27;3.50;;;1.23;;
6973;SDS011;3527;52.376;8.990;2022-09-09T17:18:14;2.07;;;0.93;;
6973;SDS011;3527;52.376;8.990;2022-09-09T17:21:04;2.07;;;1.30;;
6973;SDS011;3527;52.376;8.990;2022-09-09T17:23:55;2.67;;;1.17;;
6973;SDS011;3527;52.376;8.990;2022-09-09T17:26:43;4.20;;;1.33;;
6973;SDS011;3527;52.376;8.990;2022-09-09T17:29:31;2.53;;;1.17;;
6973;SDS011;3527;52.376;8.990;2022-09-09T17:32:18;2.03;;;1.40;;
6973;SDS011;3527;52.376;8.990;2022-09-09T17:35:05;2.67;;;1.40;;
6973;SDS011;3527;52.376;8.990;2022-09-09T17:37:52;2.57;;;1.03;;
6973;SDS011;3527;52.376;8.990;2022-09-09T17:40:41;3.13;;;1.20;;
6973;SDS011;3527;52.376;8.990;2022-09-09T17:43:29;4.23;;;1.10;;
6973;SDS011;3527;52.376;8.990;2022-09-09T17:46:17;3.83;;;1.00;;
6973;SDS011;3527;52.376;8.990;2022-09-09T17:49:09;5.40;;;1.50;;
6973;SDS011;3527;52.376;8.990;2022-09-09T17:51:59;6.70;;;2.00;;
6973;SDS011;3527;52.376;8.990;2022-09-09T17:54:46;7.60;;;2.07;;
6973;SDS011;3527;52.376;8.990;2022-09-09T17:57:33;5.20;;;1.90;;
6973;SDS011;3527;52.376;8.990;2022-09-09T18:00:20;6.10;;;2.00;;
6973;SDS011;3527;52.376;8.990;2022-09-09T18:03:08;7.77;;;2.13;;
6973;SDS011;3527;52.376;8.990;2022-09-09T18:06:03;7.00;;;2.57;;
6973;SDS011;3527;52.376;8.990;2022-09-09T18:08:53;5.23;;;2.40;;
6973;SDS011;3527;52.376;8.990;2022-09-09T18:11:47;5.53;;;1.93;;
6973;SDS011;3527;52.376;8.990;2022-09-09T18:14:35;4.47;;;1.90;;
6973;SDS011;3527;52.376;8.990;2022-09-09T18:17:22;4.63;;;2.00;;
6973;SDS011;3527;52.376;8.990;2022-09-09T18:20:11;5.77;;;2.00;;
6973;SDS011;3527;52.376;8.990;2022-09-09T18:22:58;3.53;;;2.00;;
6973;SDS011;3527;52.376;8.990;2022-09-09T18:25:45;8.77;;;2.37;;
6973;SDS011;3527;52.376;8.990;2022-09-09T18:28:32;4.63;;;2.10;;
6973;SDS011;3527;52.376;8.990;2022-09-09T18:31:21;4.23;;;2.30;;
6973;SDS011;3527;52.376;8.990;2022-09-09T18:34:11;6.83;;;2.67;;
6973;SDS011;3527;52.376;8.990;2022-09-09T18:37:00;4.73;;;2.33;;
6973;SDS011;3527;52.376;8.990;2022-09-09T18:39:47;4.47;;;2.30;;
6973;SDS011;3527;52.376;8.990;2022-09-09T18:42:34;4.50;;;2.90;;
6973;SDS011;3527;52.376;8.990;2022-09-09T18:45:21;4.87;;;2.40;;
6973;SDS011;3527;52.376;8.990;2022-09-09T18:48:08;3.77;;;2.37;;
6973;SDS011;3527;52.376;8.990;2022-09-09T18:50:55;3.07;;;1.97;;
6973;SDS011;3527;52.376;8.990;2022-09-09T18:53:51;7.33;;;2.27;;
6973;SDS011;3527;52.376;8.990;2022-09-09T18:56:40;5.20;;;2.13;;
6973;SDS011;3527;52.376;8.990;2022-09-09T18:59:28;5.30;;;2.33;;
6973;SDS011;3527;52.376;8.990;2022-09-09T19:02:16;4.80;;;2.30;;
6973;SDS011;3527;52.376;8.990;2022-09-09T19:05:03;3.43;;;2.00;;
6973;SDS011;3527;52.376;8.990;2022-09-09T19:07:50;6.20;;;2.37;;
6973;SDS011;3527;52.376;8.990;2022-09-09T19:10:38;5.07;;;2.23;;
6973;SDS011;3527;52.376;8.990;2022-09-09T19:13:25;3.03;;;1.97;;
6973;SDS011;3527;52.376;8.990;2022-09-09T19:16:13;6.50;;;2.13;;
6973;SDS011;3527;52.376;8.990;2022-09-09T19:19:02;2.63;;;2.00;;
6973;SDS011;3527;52.376;8.990;2022-09-09T19:21:51;5.87;;;2.20;;
6973;SDS011;3527;52.376;8.990;2022-09-09T19:24:39;3.40;;;2.10;;
6973;SDS011;3527;52.376;8.990;2022-09-09T19:27:26;3.40;;;2.10;;
6973;SDS011;3527;52.376;8.990;2022-09-09T19:30:13;3.77;;;2.00;;
6973;SDS011;3527;52.376;8.990;2022-09-09T19:33:00;3.13;;;2.20;;
6973;SDS011;3527;52.376;8.990;2022-09-09T19:35:55;2.57;;;2.10;;
6973;SDS011;3527;52.376;8.990;2022-09-09T19:38:44;3.87;;;2.07;;
6973;SDS011;3527;52.376;8.990;2022-09-09T19:41:32;3.07;;;2.20;;
6973;SDS011;3527;52.376;8.990;2022-09-09T19:44:22;2.03;;;1.67;;
6973;SDS011;3527;52.376;8.990;2022-09-09T19:47:10;2.77;;;2.00;;